sensor_id;sensor_type;location;lat;lon;timestamp;P1;durP1;ratioP1;P2;durP2;ratioP2
32216;SDS011;67098;51.140;4.088;2023-09-18T00:01:39;15.85;;;9.20;;
32216;SDS011;67098;51.140;4.088;2023-09-18T00:04:05;14.70;;;8.75;;
32216;SDS011;67098;51.140;4.088;2023-09-18T00:06:34;13.75;;;8.18;;
32216;SDS011;67098;51.140;4.088;2023-09-18T00:09:00;14.82;;;8.45;;
32216;SDS011;67098;51.140;4.088;2023-09-18T00:11:26;14.05;;;8.45;;
32216;SDS011;67098;51.140;4.088;2023-09-18T00:13:52;10.27;;;8.25;;
32216;SDS011;67098;51.140;4.088;2023-09-18T00:16:18;11.93;;;8.18;;
32216;SDS011;67098;51.140;4.088;2023-09-18T00:18:44;15.23;;;8.80;;
32216;SDS011;67098;51.140;4.088;2023-09-18T00:21:10;11.85;;;8.00;;
32216;SDS011;67098;51.140;4.088;2023-09-18T00:23:36;11.95;;;7.45;;
32216;SDS011;67098;51.140;4.088;2023-09-18T00:26:03;12.13;;;7.85;;
32216;SDS011;67098;51.140;4.088;2023-09-18T00:28:29;13.73;;;8.07;;
32216;SDS011;67098;51.140;4.088;2023-09-18T00:30:54;12.10;;;7.80;;
32216;SDS011;67098;51.140;4.088;2023-09-18T00:33:20;13.82;;;7.53;;
32216;SDS011;67098;51.140;4.088;2023-09-18T00:35:47;14.63;;;7.88;;
32216;SDS011;67098;51.140;4.088;2023-09-18T00:38:14;13.10;;;8.20;;
32216;SDS011;67098;51.140;4.088;2023-09-18T00:40:40;11.43;;;7.50;;
32216;SDS011;67098;51.140;4.088;2023-09-18T00:43:06;10.85;;;8.23;;
32216;SDS011;67098;51.140;4.088;2023-09-18T00:45:32;12.18;;;7.90;;
32216;SDS011;67098;51.140;4.088;2023-09-18T00:47:58;13.65;;;7.57;;
32216;SDS011;67098;51.140;4.088;2023-09-18T00:50:24;12.50;;;7.45;;
32216;SDS011;67098;51.140;4.088;2023-09-18T00:52:51;10.05;;;7.38;;
32216;SDS011;67098;51.140;4.088;2023-09-18T00:55:17;11.73;;;7.15;;
32216;SDS011;67098;51.140;4.088;2023-09-18T00:57:43;14.35;;;7.68;;
32216;SDS011;67098;51.140;4.088;2023-09-18T01:00:10;14.52;;;7.70;;
32216;SDS011;67098;51.140;4.088;2023-09-18T01:02:42;14.68;;;8.40;;
32216;SDS011;67098;51.140;4.088;2023-09-18T01:05:08;13.00;;;8.68;;
32216;SDS011;67098;51.140;4.088;2023-09-18T01:07:34;14.68;;;8.55;;
32216;SDS011;67098;51.140;4.088;2023-09-18T01:10:00;15.52;;;8.25;;
32216;SDS011;67098;51.140;4.088;2023-09-18T01:17:48;11.60;;;8.77;;
32216;SDS011;67098;51.140;4.088;2023-09-18T01:20:14;21.17;;;8.82;;
32216;SDS011;67098;51.140;4.088;2023-09-18T01:22:40;13.20;;;9.00;;
32216;SDS011;67098;51.140;4.088;2023-09-18T01:25:06;15.90;;;9.20;;
32216;SDS011;67098;51.140;4.088;2023-09-18T01:27:32;16.95;;;9.45;;
32216;SDS011;67098;51.140;4.088;2023-09-18T01:29:58;19.73;;;9.38;;
32216;SDS011;67098;51.140;4.088;2023-09-18T01:32:25;11.68;;;9.10;;
32216;SDS011;67098;51.140;4.088;2023-09-18T01:34:55;15.30;;;8.70;;
32216;SDS011;67098;51.140;4.088;2023-09-18T01:37:29;16.43;;;8.50;;
32216;SDS011;67098;51.140;4.088;2023-09-18T01:42:25;13.20;;;8.68;;
32216;SDS011;67098;51.140;4.088;2023-09-18T01:44:52;13.50;;;8.40;;
32216;SDS011;67098;51.140;4.088;2023-09-18T01:47:19;16.33;;;8.75;;
32216;SDS011;67098;51.140;4.088;2023-09-18T01:49:48;12.98;;;8.50;;
32216;SDS011;67098;51.140;4.088;2023-09-18T01:52:14;15.98;;;9.10;;
32216;SDS011;67098;51.140;4.088;2023-09-18T01:54:40;12.68;;;8.32;;
32216;SDS011;67098;51.140;4.088;2023-09-18T01:57:06;12.15;;;7.90;;
32216;SDS011;67098;51.140;4.088;2023-09-18T01:59:33;13.85;;;8.77;;
32216;SDS011;67098;51.140;4.088;2023-09-18T02:01:59;12.27;;;8.93;;
32216;SDS011;67098;51.140;4.088;2023-09-18T02:04:26;12.98;;;8.95;;
32216;SDS011;67098;51.140;4.088;2023-09-18T02:06:52;13.30;;;8.25;;
32216;SDS011;67098;51.140;4.088;2023-09-18T02:09:18;13.18;;;8.45;;
32216;SDS011;67098;51.140;4.088;2023-09-18T02:11:44;14.15;;;9.30;;
32216;SDS011;67098;51.140;4.088;2023-09-18T02:14:11;18.05;;;10.00;;
32216;SDS011;67098;51.140;4.088;2023-09-18T02:16:41;16.05;;;8.85;;
32216;SDS011;67098;51.140;4.088;2023-09-18T02:19:08;14.98;;;9.05;;
32216;SDS011;67098;51.140;4.088;2023-09-18T02:21:34;14.13;;;8.25;;
32216;SDS011;67098;51.140;4.088;2023-09-18T02:24:00;15.40;;;8.43;;
32216;SDS011;67098;51.140;4.088;2023-09-18T02:26:27;13.90;;;8.98;;
32216;SDS011;67098;51.140;4.088;2023-09-18T02:28:53;13.40;;;7.93;;
32216;SDS011;67098;51.140;4.088;2023-09-18T02:31:20;13.57;;;7.50;;
32216;SDS011;67098;51.140;4.088;2023-09-18T02:33:47;12.93;;;8.00;;
32216;SDS011;67098;51.140;4.088;2023-09-18T02:36:13;16.13;;;7.55;;
32216;SDS011;67098;51.140;4.088;2023-09-18T02:38:39;11.20;;;7.00;;
32216;SDS011;67098;51.140;4.088;2023-09-18T02:41:05;15.73;;;7.63;;
32216;SDS011;67098;51.140;4.088;2023-09-18T02:43:31;20.50;;;7.53;;
32216;SDS011;67098;51.140;4.088;2023-09-18T02:45:57;10.68;;;7.13;;
32216;SDS011;67098;51.140;4.088;2023-09-18T02:48:23;14.93;;;7.78;;
32216;SDS011;67098;51.140;4.088;2023-09-18T02:50:48;12.35;;;6.95;;
32216;SDS011;67098;51.140;4.088;2023-09-18T02:53:19;16.20;;;7.18;;
32216;SDS011;67098;51.140;4.088;2023-09-18T02:55:46;18.48;;;7.40;;
32216;SDS011;67098;51.140;4.088;2023-09-18T02:58:15;16.25;;;7.88;;
32216;SDS011;67098;51.140;4.088;2023-09-18T03:00:41;15.57;;;7.50;;
32216;SDS011;67098;51.140;4.088;2023-09-18T03:03:08;13.63;;;7.13;;
32216;SDS011;67098;51.140;4.088;2023-09-18T03:05:35;13.70;;;6.85;;
32216;SDS011;67098;51.140;4.088;2023-09-18T03:08:02;18.23;;;7.43;;
32216;SDS011;67098;51.140;4.088;2023-09-18T03:10:28;13.07;;;6.47;;
32216;SDS011;67098;51.140;4.088;2023-09-18T03:13:04;15.63;;;7.13;;
32216;SDS011;67098;51.140;4.088;2023-09-18T03:15:30;10.80;;;6.40;;
32216;SDS011;67098;51.140;4.088;2023-09-18T03:17:59;9.90;;;6.47;;
32216;SDS011;67098;51.140;4.088;2023-09-18T03:20:26;13.60;;;6.63;;
32216;SDS011;67098;51.140;4.088;2023-09-18T03:22:54;11.68;;;5.93;;
32216;SDS011;67098;51.140;4.088;2023-09-18T03:25:22;10.32;;;5.75;;
32216;SDS011;67098;51.140;4.088;2023-09-18T03:27:49;12.20;;;5.72;;
32216;SDS011;67098;51.140;4.088;2023-09-18T03:30:16;10.30;;;5.00;;
32216;SDS011;67098;51.140;4.088;2023-09-18T03:32:43;11.25;;;5.65;;
32216;SDS011;67098;51.140;4.088;2023-09-18T03:35:10;7.53;;;4.97;;
32216;SDS011;67098;51.140;4.088;2023-09-18T03:37:43;12.85;;;5.20;;
32216;SDS011;67098;51.140;4.088;2023-09-18T03:40:16;11.20;;;5.45;;
32216;SDS011;67098;51.140;4.088;2023-09-18T03:42:43;11.50;;;5.88;;
32216;SDS011;67098;51.140;4.088;2023-09-18T03:45:09;8.75;;;4.85;;
32216;SDS011;67098;51.140;4.088;2023-09-18T03:47:36;8.80;;;5.15;;
32216;SDS011;67098;51.140;4.088;2023-09-18T03:50:06;12.45;;;6.22;;
32216;SDS011;67098;51.140;4.088;2023-09-18T03:52:33;12.10;;;5.50;;
32216;SDS011;67098;51.140;4.088;2023-09-18T03:54:59;12.10;;;5.38;;
32216;SDS011;67098;51.140;4.088;2023-09-18T03:57:25;11.40;;;5.20;;
32216;SDS011;67098;51.140;4.088;2023-09-18T03:59:51;9.90;;;5.10;;
32216;SDS011;67098;51.140;4.088;2023-09-18T04:02:17;10.48;;;5.35;;
32216;SDS011;67098;51.140;4.088;2023-09-18T04:04:42;11.80;;;4.90;;
32216;SDS011;67098;51.140;4.088;2023-09-18T04:07:08;10.32;;;5.35;;
32216;SDS011;67098;51.140;4.088;2023-09-18T04:09:35;16.05;;;5.95;;
32216;SDS011;67098;51.140;4.088;2023-09-18T04:12:01;14.63;;;5.70;;
32216;SDS011;67098;51.140;4.088;2023-09-18T04:14:27;10.20;;;5.22;;
32216;SDS011;67098;51.140;4.088;2023-09-18T04:16:53;11.40;;;5.35;;
32216;SDS011;67098;51.140;4.088;2023-09-18T04:19:19;12.98;;;5.70;;
32216;SDS011;67098;51.140;4.088;2023-09-18T04:21:44;17.45;;;5.70;;
32216;SDS011;67098;51.140;4.088;2023-09-18T04:24:11;11.07;;;4.93;;
32216;SDS011;67098;51.140;4.088;2023-09-18T04:26:37;8.15;;;5.18;;
32216;SDS011;67098;51.140;4.088;2023-09-18T04:29:04;10.43;;;5.00;;
32216;SDS011;67098;51.140;4.088;2023-09-18T04:31:31;11.50;;;4.93;;
32216;SDS011;67098;51.140;4.088;2023-09-18T04:33:57;13.30;;;5.28;;
32216;SDS011;67098;51.140;4.088;2023-09-18T04:36:23;11.57;;;5.13;;
32216;SDS011;67098;51.140;4.088;2023-09-18T04:38:50;5.70;;;4.60;;
32216;SDS011;67098;51.140;4.088;2023-09-18T04:41:16;8.95;;;4.95;;
32216;SDS011;67098;51.140;4.088;2023-09-18T04:43:42;8.02;;;3.85;;
32216;SDS011;67098;51.140;4.088;2023-09-18T04:46:08;9.98;;;4.10;;
32216;SDS011;67098;51.140;4.088;2023-09-18T04:48:34;8.73;;;3.80;;
32216;SDS011;67098;51.140;4.088;2023-09-18T04:51:00;6.20;;;3.95;;
32216;SDS011;67098;51.140;4.088;2023-09-18T04:53:29;10.55;;;3.47;;
32216;SDS011;67098;51.140;4.088;2023-09-18T04:55:56;7.03;;;3.73;;
32216;SDS011;67098;51.140;4.088;2023-09-18T04:58:22;6.70;;;3.40;;
32216;SDS011;67098;51.140;4.088;2023-09-18T05:00:54;11.00;;;4.07;;
32216;SDS011;67098;51.140;4.088;2023-09-18T05:03:21;4.95;;;2.88;;
32216;SDS011;67098;51.140;4.088;2023-09-18T05:05:46;6.03;;;2.97;;
32216;SDS011;67098;51.140;4.088;2023-09-18T05:08:12;8.23;;;3.15;;
32216;SDS011;67098;51.140;4.088;2023-09-18T05:10:38;9.60;;;3.22;;
32216;SDS011;67098;51.140;4.088;2023-09-18T05:13:04;6.28;;;3.05;;
32216;SDS011;67098;51.140;4.088;2023-09-18T05:15:30;7.88;;;3.38;;
32216;SDS011;67098;51.140;4.088;2023-09-18T05:17:57;9.15;;;3.58;;
32216;SDS011;67098;51.140;4.088;2023-09-18T05:20:24;10.25;;;3.58;;
32216;SDS011;67098;51.140;4.088;2023-09-18T05:22:51;4.95;;;3.45;;
32216;SDS011;67098;51.140;4.088;2023-09-18T05:25:20;6.80;;;2.92;;
32216;SDS011;67098;51.140;4.088;2023-09-18T05:27:48;6.78;;;2.88;;
32216;SDS011;67098;51.140;4.088;2023-09-18T05:30:20;7.82;;;3.40;;
32216;SDS011;67098;51.140;4.088;2023-09-18T05:32:53;7.68;;;3.08;;
32216;SDS011;67098;51.140;4.088;2023-09-18T05:35:19;6.45;;;3.33;;
32216;SDS011;67098;51.140;4.088;2023-09-18T05:37:46;5.07;;;2.63;;
32216;SDS011;67098;51.140;4.088;2023-09-18T05:40:13;9.88;;;3.38;;
32216;SDS011;67098;51.140;4.088;2023-09-18T05:42:40;8.95;;;2.63;;
32216;SDS011;67098;51.140;4.088;2023-09-18T05:45:11;5.78;;;2.78;;
32216;SDS011;67098;51.140;4.088;2023-09-18T05:47:37;5.47;;;2.78;;
32216;SDS011;67098;51.140;4.088;2023-09-18T05:50:08;4.93;;;2.65;;
32216;SDS011;67098;51.140;4.088;2023-09-18T05:52:35;7.72;;;2.67;;
32216;SDS011;67098;51.140;4.088;2023-09-18T05:55:04;7.60;;;2.60;;
32216;SDS011;67098;51.140;4.088;2023-09-18T05:59:57;6.35;;;2.75;;
32216;SDS011;67098;51.140;4.088;2023-09-18T06:02:23;5.07;;;2.67;;
32216;SDS011;67098;51.140;4.088;2023-09-18T06:04:55;3.53;;;2.38;;
32216;SDS011;67098;51.140;4.088;2023-09-18T06:07:24;7.15;;;2.72;;
32216;SDS011;67098;51.140;4.088;2023-09-18T06:09:50;9.88;;;2.80;;
32216;SDS011;67098;51.140;4.088;2023-09-18T06:12:16;9.57;;;2.70;;
32216;SDS011;67098;51.140;4.088;2023-09-18T06:14:41;5.95;;;2.72;;
32216;SDS011;67098;51.140;4.088;2023-09-18T06:17:07;8.55;;;2.75;;
32216;SDS011;67098;51.140;4.088;2023-09-18T06:19:34;6.40;;;2.63;;
32216;SDS011;67098;51.140;4.088;2023-09-18T06:22:01;7.82;;;3.28;;
32216;SDS011;67098;51.140;4.088;2023-09-18T06:24:27;8.02;;;3.15;;
32216;SDS011;67098;51.140;4.088;2023-09-18T06:26:53;8.63;;;2.97;;
32216;SDS011;67098;51.140;4.088;2023-09-18T06:29:19;5.65;;;3.20;;
32216;SDS011;67098;51.140;4.088;2023-09-18T06:31:45;9.35;;;3.60;;
32216;SDS011;67098;51.140;4.088;2023-09-18T06:34:11;8.88;;;3.45;;
32216;SDS011;67098;51.140;4.088;2023-09-18T06:36:37;9.35;;;3.20;;
32216;SDS011;67098;51.140;4.088;2023-09-18T06:39:03;9.77;;;3.97;;
32216;SDS011;67098;51.140;4.088;2023-09-18T06:41:29;5.22;;;3.40;;
32216;SDS011;67098;51.140;4.088;2023-09-18T06:43:54;8.35;;;3.60;;
32216;SDS011;67098;51.140;4.088;2023-09-18T06:46:22;6.10;;;3.50;;
32216;SDS011;67098;51.140;4.088;2023-09-18T06:48:48;8.43;;;3.50;;
32216;SDS011;67098;51.140;4.088;2023-09-18T06:51:16;6.15;;;3.50;;
32216;SDS011;67098;51.140;4.088;2023-09-18T06:53:43;10.43;;;3.63;;
32216;SDS011;67098;51.140;4.088;2023-09-18T06:56:09;7.82;;;3.88;;
32216;SDS011;67098;51.140;4.088;2023-09-18T06:58:35;8.32;;;3.35;;
32216;SDS011;67098;51.140;4.088;2023-09-18T07:01:00;8.52;;;3.50;;
32216;SDS011;67098;51.140;4.088;2023-09-18T07:03:26;7.00;;;3.42;;
32216;SDS011;67098;51.140;4.088;2023-09-18T07:05:52;8.68;;;3.28;;
32216;SDS011;67098;51.140;4.088;2023-09-18T07:08:18;6.72;;;2.75;;
32216;SDS011;67098;51.140;4.088;2023-09-18T07:10:49;8.13;;;3.15;;
32216;SDS011;67098;51.140;4.088;2023-09-18T07:13:15;8.48;;;3.05;;
32216;SDS011;67098;51.140;4.088;2023-09-18T07:15:41;5.93;;;2.85;;
32216;SDS011;67098;51.140;4.088;2023-09-18T07:18:07;6.55;;;3.03;;
32216;SDS011;67098;51.140;4.088;2023-09-18T07:20:34;5.32;;;2.78;;
32216;SDS011;67098;51.140;4.088;2023-09-18T07:23:01;7.00;;;3.25;;
32216;SDS011;67098;51.140;4.088;2023-09-18T07:25:27;6.07;;;3.03;;
32216;SDS011;67098;51.140;4.088;2023-09-18T07:27:52;7.00;;;3.10;;
32216;SDS011;67098;51.140;4.088;2023-09-18T07:30:18;8.43;;;3.17;;
32216;SDS011;67098;51.140;4.088;2023-09-18T07:32:47;7.40;;;2.45;;
32216;SDS011;67098;51.140;4.088;2023-09-18T07:35:12;5.43;;;2.80;;
32216;SDS011;67098;51.140;4.088;2023-09-18T07:37:39;12.98;;;3.15;;
32216;SDS011;67098;51.140;4.088;2023-09-18T07:40:06;6.20;;;3.20;;
32216;SDS011;67098;51.140;4.088;2023-09-18T07:42:32;6.50;;;3.00;;
32216;SDS011;67098;51.140;4.088;2023-09-18T07:44:58;121.15;;;25.33;;
32216;SDS011;67098;51.140;4.088;2023-09-18T07:47:24;68.03;;;12.82;;
32216;SDS011;67098;51.140;4.088;2023-09-18T07:49:50;20.25;;;6.70;;
32216;SDS011;67098;51.140;4.088;2023-09-18T07:52:17;12.48;;;3.50;;
32216;SDS011;67098;51.140;4.088;2023-09-18T07:54:43;9.18;;;3.67;;
32216;SDS011;67098;51.140;4.088;2023-09-18T07:57:09;8.20;;;3.67;;
32216;SDS011;67098;51.140;4.088;2023-09-18T07:59:37;8.00;;;3.60;;
32216;SDS011;67098;51.140;4.088;2023-09-18T08:02:04;9.88;;;3.33;;
32216;SDS011;67098;51.140;4.088;2023-09-18T08:04:31;11.48;;;3.63;;
32216;SDS011;67098;51.140;4.088;2023-09-18T08:06:57;13.30;;;3.75;;
32216;SDS011;67098;51.140;4.088;2023-09-18T08:09:23;10.70;;;4.00;;
32216;SDS011;67098;51.140;4.088;2023-09-18T08:11:49;8.98;;;3.35;;
32216;SDS011;67098;51.140;4.088;2023-09-18T08:14:15;8.02;;;4.00;;
32216;SDS011;67098;51.140;4.088;2023-09-18T08:16:42;8.50;;;4.05;;
32216;SDS011;67098;51.140;4.088;2023-09-18T08:19:08;9.82;;;3.53;;
32216;SDS011;67098;51.140;4.088;2023-09-18T08:21:34;11.48;;;4.43;;
32216;SDS011;67098;51.140;4.088;2023-09-18T08:24:00;12.75;;;4.43;;
32216;SDS011;67098;51.140;4.088;2023-09-18T08:26:26;7.45;;;4.25;;
32216;SDS011;67098;51.140;4.088;2023-09-18T08:28:53;11.02;;;4.82;;
32216;SDS011;67098;51.140;4.088;2023-09-18T08:31:19;12.98;;;5.63;;
32216;SDS011;67098;51.140;4.088;2023-09-18T08:33:45;10.32;;;5.88;;
32216;SDS011;67098;51.140;4.088;2023-09-18T08:36:11;10.02;;;5.85;;
32216;SDS011;67098;51.140;4.088;2023-09-18T08:38:37;11.20;;;6.38;;
32216;SDS011;67098;51.140;4.088;2023-09-18T08:41:03;13.45;;;6.32;;
32216;SDS011;67098;51.140;4.088;2023-09-18T08:43:31;10.57;;;6.18;;
32216;SDS011;67098;51.140;4.088;2023-09-18T08:45:57;12.73;;;6.80;;
32216;SDS011;67098;51.140;4.088;2023-09-18T08:48:27;11.77;;;7.18;;
32216;SDS011;67098;51.140;4.088;2023-09-18T08:51:03;14.27;;;7.22;;
32216;SDS011;67098;51.140;4.088;2023-09-18T08:53:30;12.63;;;6.60;;
32216;SDS011;67098;51.140;4.088;2023-09-18T08:55:58;10.82;;;6.88;;
32216;SDS011;67098;51.140;4.088;2023-09-18T08:58:32;12.27;;;6.25;;
32216;SDS011;67098;51.140;4.088;2023-09-18T09:01:01;8.77;;;5.78;;
32216;SDS011;67098;51.140;4.088;2023-09-18T09:03:29;9.02;;;5.43;;
32216;SDS011;67098;51.140;4.088;2023-09-18T09:05:55;10.73;;;4.95;;
32216;SDS011;67098;51.140;4.088;2023-09-18T09:08:22;10.13;;;4.82;;
32216;SDS011;67098;51.140;4.088;2023-09-18T09:10:48;7.85;;;4.68;;
32216;SDS011;67098;51.140;4.088;2023-09-18T09:13:14;14.20;;;4.68;;
32216;SDS011;67098;51.140;4.088;2023-09-18T09:15:46;9.18;;;4.60;;
32216;SDS011;67098;51.140;4.088;2023-09-18T09:18:13;11.25;;;4.85;;
32216;SDS011;67098;51.140;4.088;2023-09-18T09:23:50;11.73;;;4.68;;
32216;SDS011;67098;51.140;4.088;2023-09-18T09:26:17;12.25;;;4.68;;
32216;SDS011;67098;51.140;4.088;2023-09-18T09:28:45;11.35;;;5.03;;
32216;SDS011;67098;51.140;4.088;2023-09-18T09:31:11;12.82;;;5.18;;
32216;SDS011;67098;51.140;4.088;2023-09-18T09:33:55;11.75;;;4.90;;
32216;SDS011;67098;51.140;4.088;2023-09-18T09:36:23;8.60;;;4.45;;
32216;SDS011;67098;51.140;4.088;2023-09-18T09:38:55;7.78;;;4.80;;
32216;SDS011;67098;51.140;4.088;2023-09-18T09:41:23;9.40;;;4.80;;
32216;SDS011;67098;51.140;4.088;2023-09-18T09:43:48;8.80;;;4.53;;
32216;SDS011;67098;51.140;4.088;2023-09-18T09:46:16;10.05;;;4.80;;
32216;SDS011;67098;51.140;4.088;2023-09-18T09:48:59;8.18;;;4.32;;
32216;SDS011;67098;51.140;4.088;2023-09-18T09:51:27;7.70;;;4.60;;
32216;SDS011;67098;51.140;4.088;2023-09-18T09:53:54;7.22;;;4.22;;
32216;SDS011;67098;51.140;4.088;2023-09-18T09:56:21;9.43;;;4.80;;
32216;SDS011;67098;51.140;4.088;2023-09-18T09:59:01;8.93;;;4.95;;
32216;SDS011;67098;51.140;4.088;2023-09-18T10:01:30;9.47;;;4.30;;
32216;SDS011;67098;51.140;4.088;2023-09-18T10:03:56;13.25;;;4.75;;
32216;SDS011;67098;51.140;4.088;2023-09-18T10:06:23;9.23;;;5.20;;
32216;SDS011;67098;51.140;4.088;2023-09-18T10:08:50;7.32;;;4.80;;
32216;SDS011;67098;51.140;4.088;2023-09-18T10:11:17;10.80;;;6.05;;
32216;SDS011;67098;51.140;4.088;2023-09-18T10:13:47;8.02;;;5.53;;
32216;SDS011;67098;51.140;4.088;2023-09-18T10:16:18;9.00;;;6.25;;
32216;SDS011;67098;51.140;4.088;2023-09-18T10:21:44;11.30;;;6.35;;
32216;SDS011;67098;51.140;4.088;2023-09-18T10:24:34;7.65;;;5.60;;
32216;SDS011;67098;51.140;4.088;2023-09-18T10:27:03;10.75;;;5.75;;
32216;SDS011;67098;51.140;4.088;2023-09-18T10:29:33;8.55;;;4.88;;
32216;SDS011;67098;51.140;4.088;2023-09-18T10:32:01;8.68;;;4.40;;
32216;SDS011;67098;51.140;4.088;2023-09-18T10:34:29;9.02;;;4.72;;
32216;SDS011;67098;51.140;4.088;2023-09-18T10:36:58;4.97;;;3.88;;
32216;SDS011;67098;51.140;4.088;2023-09-18T10:39:25;10.10;;;3.83;;
32216;SDS011;67098;51.140;4.088;2023-09-18T10:41:54;7.97;;;3.83;;
32216;SDS011;67098;51.140;4.088;2023-09-18T10:44:26;10.25;;;3.70;;
32216;SDS011;67098;51.140;4.088;2023-09-18T10:46:53;7.82;;;3.40;;
32216;SDS011;67098;51.140;4.088;2023-09-18T10:49:19;8.55;;;3.20;;
32216;SDS011;67098;51.140;4.088;2023-09-18T10:51:46;8.50;;;3.58;;
32216;SDS011;67098;51.140;4.088;2023-09-18T10:54:16;7.72;;;3.78;;
32216;SDS011;67098;51.140;4.088;2023-09-18T10:56:45;7.95;;;3.53;;
32216;SDS011;67098;51.140;4.088;2023-09-18T10:59:13;6.20;;;3.80;;
32216;SDS011;67098;51.140;4.088;2023-09-18T11:01:43;7.75;;;4.43;;
32216;SDS011;67098;51.140;4.088;2023-09-18T11:04:11;10.23;;;4.03;;
32216;SDS011;67098;51.140;4.088;2023-09-18T11:09:21;8.30;;;3.75;;
32216;SDS011;67098;51.140;4.088;2023-09-18T11:12:08;6.70;;;3.53;;
32216;SDS011;67098;51.140;4.088;2023-09-18T11:17:31;5.93;;;3.35;;
32216;SDS011;67098;51.140;4.088;2023-09-18T11:22:46;7.80;;;3.42;;
32216;SDS011;67098;51.140;4.088;2023-09-18T11:28:00;7.35;;;2.67;;
32216;SDS011;67098;51.140;4.088;2023-09-18T11:30:27;4.43;;;2.55;;
32216;SDS011;67098;51.140;4.088;2023-09-18T11:32:54;5.70;;;2.33;;
32216;SDS011;67098;51.140;4.088;2023-09-18T11:35:20;5.25;;;2.47;;
32216;SDS011;67098;51.140;4.088;2023-09-18T11:37:47;7.32;;;2.65;;
32216;SDS011;67098;51.140;4.088;2023-09-18T11:40:30;7.25;;;2.67;;
32216;SDS011;67098;51.140;4.088;2023-09-18T11:45:55;6.28;;;2.25;;
32216;SDS011;67098;51.140;4.088;2023-09-18T11:48:27;7.95;;;2.38;;
32216;SDS011;67098;51.140;4.088;2023-09-18T11:50:55;8.00;;;2.28;;
32216;SDS011;67098;51.140;4.088;2023-09-18T11:53:23;4.97;;;2.28;;
32216;SDS011;67098;51.140;4.088;2023-09-18T11:55:51;6.85;;;2.25;;
32216;SDS011;67098;51.140;4.088;2023-09-18T11:58:17;3.65;;;1.90;;
32216;SDS011;67098;51.140;4.088;2023-09-18T12:00:48;8.50;;;2.08;;
32216;SDS011;67098;51.140;4.088;2023-09-18T12:05:51;4.40;;;2.45;;
32216;SDS011;67098;51.140;4.088;2023-09-18T12:08:22;6.93;;;2.70;;
32216;SDS011;67098;51.140;4.088;2023-09-18T12:10:51;3.80;;;1.88;;
32216;SDS011;67098;51.140;4.088;2023-09-18T12:13:18;6.85;;;1.90;;
32216;SDS011;67098;51.140;4.088;2023-09-18T12:15:44;3.03;;;1.75;;
32216;SDS011;67098;51.140;4.088;2023-09-18T12:18:10;9.75;;;2.45;;
32216;SDS011;67098;51.140;4.088;2023-09-18T12:20:49;3.83;;;1.93;;
32216;SDS011;67098;51.140;4.088;2023-09-18T12:23:16;4.57;;;2.42;;
32216;SDS011;67098;51.140;4.088;2023-09-18T12:25:46;7.45;;;2.10;;
32216;SDS011;67098;51.140;4.088;2023-09-18T12:28:14;4.82;;;2.20;;
32216;SDS011;67098;51.140;4.088;2023-09-18T12:30:41;2.97;;;1.65;;
32216;SDS011;67098;51.140;4.088;2023-09-18T12:33:08;6.55;;;2.40;;
32216;SDS011;67098;51.140;4.088;2023-09-18T12:35:34;6.45;;;2.05;;
32216;SDS011;67098;51.140;4.088;2023-09-18T12:38:01;6.88;;;2.35;;
32216;SDS011;67098;51.140;4.088;2023-09-18T12:40:52;7.32;;;2.00;;
32216;SDS011;67098;51.140;4.088;2023-09-18T12:43:20;9.65;;;2.15;;
32216;SDS011;67098;51.140;4.088;2023-09-18T12:45:48;3.60;;;1.90;;
32216;SDS011;67098;51.140;4.088;2023-09-18T12:48:15;4.00;;;1.70;;
32216;SDS011;67098;51.140;4.088;2023-09-18T12:50:41;6.43;;;1.90;;
32216;SDS011;67098;51.140;4.088;2023-09-18T12:53:13;7.53;;;2.15;;
32216;SDS011;67098;51.140;4.088;2023-09-18T12:55:40;5.40;;;1.90;;
32216;SDS011;67098;51.140;4.088;2023-09-18T12:58:11;8.38;;;2.20;;
32216;SDS011;67098;51.140;4.088;2023-09-18T13:00:37;5.20;;;1.60;;
32216;SDS011;67098;51.140;4.088;2023-09-18T13:03:11;8.70;;;2.28;;
32216;SDS011;67098;51.140;4.088;2023-09-18T13:05:40;8.88;;;2.22;;
32216;SDS011;67098;51.140;4.088;2023-09-18T13:08:07;8.77;;;1.90;;
32216;SDS011;67098;51.140;4.088;2023-09-18T13:10:46;5.75;;;2.05;;
32216;SDS011;67098;51.140;4.088;2023-09-18T13:13:21;7.55;;;1.77;;
32216;SDS011;67098;51.140;4.088;2023-09-18T13:15:50;5.20;;;2.63;;
32216;SDS011;67098;51.140;4.088;2023-09-18T13:18:17;5.10;;;1.88;;
32216;SDS011;67098;51.140;4.088;2023-09-18T13:20:44;5.22;;;2.00;;
32216;SDS011;67098;51.140;4.088;2023-09-18T13:23:10;3.70;;;2.00;;
32216;SDS011;67098;51.140;4.088;2023-09-18T13:25:37;7.57;;;2.05;;
32216;SDS011;67098;51.140;4.088;2023-09-18T13:28:10;5.60;;;1.95;;
32216;SDS011;67098;51.140;4.088;2023-09-18T13:30:37;6.07;;;2.20;;
32216;SDS011;67098;51.140;4.088;2023-09-18T13:35:38;5.07;;;1.80;;
32216;SDS011;67098;51.140;4.088;2023-09-18T13:38:05;3.58;;;1.80;;
32216;SDS011;67098;51.140;4.088;2023-09-18T13:40:33;6.10;;;2.03;;
32216;SDS011;67098;51.140;4.088;2023-09-18T13:43:03;7.28;;;2.25;;
32216;SDS011;67098;51.140;4.088;2023-09-18T13:45:30;3.25;;;0.98;;
32216;SDS011;67098;51.140;4.088;2023-09-18T13:47:56;7.85;;;1.70;;
32216;SDS011;67098;51.140;4.088;2023-09-18T13:50:22;10.30;;;1.60;;
32216;SDS011;67098;51.140;4.088;2023-09-18T13:52:48;8.57;;;1.88;;
32216;SDS011;67098;51.140;4.088;2023-09-18T13:55:14;11.82;;;2.15;;
32216;SDS011;67098;51.140;4.088;2023-09-18T13:57:39;7.82;;;1.95;;
32216;SDS011;67098;51.140;4.088;2023-09-18T14:00:06;8.18;;;2.00;;
32216;SDS011;67098;51.140;4.088;2023-09-18T14:02:34;10.05;;;2.25;;
32216;SDS011;67098;51.140;4.088;2023-09-18T14:05:00;6.65;;;1.75;;
32216;SDS011;67098;51.140;4.088;2023-09-18T14:07:26;6.47;;;2.20;;
32216;SDS011;67098;51.140;4.088;2023-09-18T14:09:52;3.13;;;1.60;;
32216;SDS011;67098;51.140;4.088;2023-09-18T14:12:18;4.38;;;1.50;;
32216;SDS011;67098;51.140;4.088;2023-09-18T14:14:44;3.75;;;1.60;;
32216;SDS011;67098;51.140;4.088;2023-09-18T14:17:11;6.82;;;1.58;;
32216;SDS011;67098;51.140;4.088;2023-09-18T14:19:37;9.77;;;1.95;;
32216;SDS011;67098;51.140;4.088;2023-09-18T14:22:04;4.05;;;1.70;;
32216;SDS011;67098;51.140;4.088;2023-09-18T14:24:31;4.28;;;1.77;;
32216;SDS011;67098;51.140;4.088;2023-09-18T14:26:59;5.15;;;2.00;;
32216;SDS011;67098;51.140;4.088;2023-09-18T14:29:25;7.00;;;2.40;;
32216;SDS011;67098;51.140;4.088;2023-09-18T14:31:51;6.75;;;1.73;;
32216;SDS011;67098;51.140;4.088;2023-09-18T14:34:17;4.78;;;1.98;;
32216;SDS011;67098;51.140;4.088;2023-09-18T14:36:43;4.97;;;1.85;;
32216;SDS011;67098;51.140;4.088;2023-09-18T14:39:10;7.07;;;1.85;;
32216;SDS011;67098;51.140;4.088;2023-09-18T14:41:36;5.18;;;2.00;;
32216;SDS011;67098;51.140;4.088;2023-09-18T14:44:03;6.88;;;2.00;;
32216;SDS011;67098;51.140;4.088;2023-09-18T14:46:30;7.20;;;2.10;;
32216;SDS011;67098;51.140;4.088;2023-09-18T14:48:58;6.78;;;2.38;;
32216;SDS011;67098;51.140;4.088;2023-09-18T14:51:26;8.32;;;2.60;;
32216;SDS011;67098;51.140;4.088;2023-09-18T14:53:53;7.82;;;3.10;;
32216;SDS011;67098;51.140;4.088;2023-09-18T14:56:20;9.35;;;3.13;;
32216;SDS011;67098;51.140;4.088;2023-09-18T14:58:46;10.75;;;3.70;;
32216;SDS011;67098;51.140;4.088;2023-09-18T15:01:12;6.18;;;3.53;;
32216;SDS011;67098;51.140;4.088;2023-09-18T15:03:39;13.57;;;4.30;;
32216;SDS011;67098;51.140;4.088;2023-09-18T15:06:05;8.30;;;3.63;;
32216;SDS011;67098;51.140;4.088;2023-09-18T15:08:35;5.78;;;2.80;;
32216;SDS011;67098;51.140;4.088;2023-09-18T15:11:01;5.90;;;2.10;;
32216;SDS011;67098;51.140;4.088;2023-09-18T15:13:29;4.15;;;2.00;;
32216;SDS011;67098;51.140;4.088;2023-09-18T15:15:56;4.20;;;1.70;;
32216;SDS011;67098;51.140;4.088;2023-09-18T15:18:22;4.60;;;2.13;;
32216;SDS011;67098;51.140;4.088;2023-09-18T15:20:47;5.78;;;2.10;;